Albany, New York
Traffic Map
Current Weather Conditions
Albany, New York
Few Clouds
Few Clouds

Feels Like: 7°
Wind Chill: Ceiling: Unl
Heat Index: Visibility: 10mi
Dew Point: -2° Wind: 8mph
Humidity: 46% Direction: 170° (S)
Pressure: 30.13in Gusts: 0mph
Raw Report DataKALB 231551Z 17007KT 10SM FEW040 09/M02 A3013 RMK AO2 SLP206 T00891022
Traffic Incident Summary
Active as of:
Severity:
Category:
InformationThere was an issue retrieving the traffic information for this location. Please try a different location or try again shortly.
Advertisements
Track Severe Weather on mobile